Antonio B. Won Pat International Airport
PGUM : now visible

Airfield :











YOU CAN JOIN US ON...

 
LOGIN :

Register | Disclaimer

   EN    FR    IT 

 









Legend :    VFR   Marginal VFR   IFR   Intensive IFR   Very Intensive IFR
Visi :
Ceiling :
>= 8 km
>= 3000ft
5 to 8 km
1000 to 3000 ft
1500m to 5 km
500 to 1000 ft
800 to 1500m
200 to 500 ft
< 800m
< 200 ft
Symbols :   Thunderstorms  Fog  Heavy snow  Heavy precipitations  Wind > 20 kt






- Airport Elevation : 298 ft
- IATA code : GUM


PGUM - Antonio B. Won Pat International

CURRENT METAR :
  • 090654Z 08010KT 10SM FEW020 r8&25 A2979 RMK AO2 SLP080 T02830250

EXPIRED METARs :
  • 090554Z 07011KT 10SM FEW023 29/25 A2978 RMK AO2 SLP076 60009 T02890250 10306 20267 56010
  • 090454Z 07013G17KT 10SM FEW027 29/26 A2979 RMK AO2 RAB27E40 SLP078 P0000 T02890261
  • 090422Z 07010KT 10SM BKN021 BKN026 BKN055 29/26 A2979 RMK AO2 T02890261

TAF PGUM
Valid from the 09 at 06:00 until the 10 at 12:00 UTC


090520Z 0906/1012 08014KT P6SM VCSH SCT020
PGZU FIR / Oceania



MET'MAP, your aeronautical weather chart ! - Copyright ORBIFLY December 2007 - Disclaimer

ORBIFLY MET'MAP TEAM :

Programming & Development : Alexandra Zaïnal
Concept & original design : Baudouin d'Aumeries
Assistance for programming : Marc-Olivier Méhu
Technical & hardware support : Manuel Goepfert

Contact : metmap@orbifly.com




SOURCES & CREDITS :

   NOAA       Earth
Advisory